Time;durP1;ratioP1;P1;durP2;ratioP2;P2;SDS_P1;SDS_P2;PMS_P1;PMS_P2;Temp;Humidity;BMP_temperature;BMP_pressure;BME280_temperature;BME280_humidity;BME280_pressure;Samples;Min_cycle;Max_cycle;Signal;HPM_P1;HPM_P2
2022/08/29 00:01:10;;;;;;;10.88;9.68;;;;;;;;;;5079205;27;20230;-67
2022/08/29 00:03:38;;;;;;;10.18;9.00;;;;;;;;;;5096511;27;20208;-68
2022/08/29 00:06:07;;;;;;;7.82;7.22;;;;;;;;;;5091455;27;20206;-68
2022/08/29 00:08:34;;;;;;;7.72;7.10;;;;;;;;;;5081973;27;21233;-65
2022/08/29 00:11:02;;;;;;;7.43;6.75;;;;;;;;;;5088113;27;20231;-66
2022/08/29 00:13:29;;;;;;;8.43;7.60;;;;;;;;;;5079667;27;20196;-67
2022/08/29 00:15:56;;;;;;;9.98;8.20;;;;;;;;;;5086523;27;20769;-65
2022/08/29 00:18:24;;;;;;;9.95;8.95;;;;;;;;;;5092556;27;20245;-69
2022/08/29 00:20:52;;;;;;;9.93;9.02;;;;;;;;;;5107852;27;20231;-65
2022/08/29 00:23:19;;;;;;;12.80;9.10;;;;;;;;;;5089590;27;20283;-67
2022/08/29 00:25:47;;;;;;;10.18;9.18;;;;;;;;;;5089209;27;20203;-68
2022/08/29 00:28:14;;;;;;;12.98;11.63;;;;;;;;;;5087786;27;20207;-68
2022/08/29 00:30:42;;;;;;;10.40;9.40;;;;;;;;;;5086487;27;20231;-68
2022/08/29 00:33:10;;;;;;;10.55;9.45;;;;;;;;;;5089440;27;20316;-66
2022/08/29 00:35:38;;;;;;;11.68;9.20;;;;;;;;;;5113429;27;20310;-68
2022/08/29 00:38:07;;;;;;;10.13;8.40;;;;;;;;;;5090646;27;20231;-65
2022/08/29 00:40:43;;;;;;;10.23;9.23;;;;;;;;;;5085106;27;20216;-67
2022/08/29 00:43:20;;;;;;;11.25;9.20;;;;;;;;;;5109660;27;20235;-66
2022/08/29 00:46:11;;;;;;;10.30;9.32;;;;;;;;;;5089766;27;20211;-68
2022/08/29 00:48:39;;;;;;;11.20;9.50;;;;;;;;;;5057363;27;20768;-66
2022/08/29 00:51:19;;;;;;;11.38;9.35;;;;;;;;;;5093076;27;20251;-67
2022/08/29 00:53:49;;;;;;;11.75;10.55;;;;;;;;;;5107797;27;20215;-67
2022/08/29 00:56:17;;;;;;;13.20;11.27;;;;;;;;;;5115331;27;20203;-68
2022/08/29 00:58:51;;;;;;;12.68;11.05;;;;;;;;;;5101082;27;20200;-67
2022/08/29 01:01:18;;;;;;;12.82;11.57;;;;;;;;;;5090881;27;20223;-68
2022/08/29 01:03:46;;;;;;;13.30;11.15;;;;;;;;;;5096229;27;20207;-68
2022/08/29 01:06:14;;;;;;;13.40;11.63;;;;;;;;;;5108547;27;20239;-65
2022/08/29 01:08:42;;;;;;;11.73;10.52;;;;;;;;;;5082523;27;20200;-67
2022/08/29 01:13:58;;;;;;;13.98;10.82;;;;;;;;;;5106785;27;20648;-67
2022/08/29 01:16:26;;;;;;;12.43;10.98;;;;;;;;;;5088660;27;20208;-65
2022/08/29 01:18:56;;;;;;;9.38;8.52;;;;;;;;;;5092207;27;20202;-69
2022/08/29 01:21:29;;;;;;;8.48;7.78;;;;;;;;;;5088637;27;20219;-68
2022/08/29 01:23:57;;;;;;;8.15;7.45;;;;;;;;;;5087730;27;20681;-65
2022/08/29 01:26:27;;;;;;;9.07;8.25;;;;;;;;;;5090238;27;20200;-68
2022/08/29 01:28:55;;;;;;;11.70;8.85;;;;;;;;;;5083608;27;20207;-67
2022/08/29 01:31:25;;;;;;;39.58;9.63;;;;;;;;;;5090005;27;20227;-67
2022/08/29 01:34:14;;;;;;;17.17;9.88;;;;;;;;;;5090348;27;20203;-67
2022/08/29 01:36:49;;;;;;;35.83;8.90;;;;;;;;;;5107979;27;20244;-67
2022/08/29 01:39:25;;;;;;;7.63;7.03;;;;;;;;;;5089194;27;20218;-65
2022/08/29 01:41:53;;;;;;;8.95;8.25;;;;;;;;;;5089211;27;20237;-67
2022/08/29 01:44:21;;;;;;;8.97;8.17;;;;;;;;;;5085336;27;20206;-68
2022/08/29 01:46:49;;;;;;;8.02;7.43;;;;;;;;;;5109116;27;20215;-68
2022/08/29 01:49:18;;;;;;;9.63;8.63;;;;;;;;;;5141784;27;20207;-67
2022/08/29 01:51:46;;;;;;;11.75;9.75;;;;;;;;;;5146365;27;20235;-68
2022/08/29 01:54:13;;;;;;;12.25;11.00;;;;;;;;;;5103957;27;20203;-67
2022/08/29 01:56:43;;;;;;;12.27;10.73;;;;;;;;;;5092073;27;20200;-67
2022/08/29 01:59:12;;;;;;;10.05;9.15;;;;;;;;;;5091021;27;20212;-66
2022/08/29 02:01:42;;;;;;;10.00;8.95;;;;;;;;;;5081864;27;21166;-65
2022/08/29 02:04:10;;;;;;;9.60;8.63;;;;;;;;;;5104308;27;20235;-65
2022/08/29 02:06:38;;;;;;;9.68;8.75;;;;;;;;;;5088619;27;20284;-67
2022/08/29 02:09:06;;;;;;;8.20;7.50;;;;;;;;;;5081782;27;20370;-65
2022/08/29 02:11:38;;;;;;;8.30;7.50;;;;;;;;;;5086882;27;20772;-66
2022/08/29 02:14:06;;;;;;;8.02;7.32;;;;;;;;;;5084135;27;20292;-65
2022/08/29 02:16:39;;;;;;;9.75;6.88;;;;;;;;;;5087135;27;20204;-67
2022/08/29 02:19:06;;;;;;;7.53;6.90;;;;;;;;;;5093821;27;20212;-66
2022/08/29 02:21:34;;;;;;;7.68;6.97;;;;;;;;;;5091580;27;20223;-67
2022/08/29 02:24:02;;;;;;;8.23;7.28;;;;;;;;;;5087334;27;20608;-67
2022/08/29 02:26:50;;;;;;;8.80;7.90;;;;;;;;;;5087328;27;20257;-67
2022/08/29 02:29:17;;;;;;;9.65;8.70;;;;;;;;;;5088508;27;20693;-67
2022/08/29 02:31:45;;;;;;;10.95;9.85;;;;;;;;;;5087916;27;20227;-68
2022/08/29 02:34:13;;;;;;;9.98;8.95;;;;;;;;;;5085538;27;21811;-65
2022/08/29 02:36:40;;;;;;;8.52;7.70;;;;;;;;;;5106016;27;20241;-68
2022/08/29 02:39:13;;;;;;;7.88;7.18;;;;;;;;;;5086476;27;20215;-63
2022/08/29 02:41:41;;;;;;;7.97;7.23;;;;;;;;;;5088714;27;20765;-65
2022/08/29 02:44:10;;;;;;;8.57;7.75;;;;;;;;;;5086385;27;20251;-66
2022/08/29 02:46:38;;;;;;;9.17;8.27;;;;;;;;;;5089864;27;20265;-68
2022/08/29 02:49:05;;;;;;;10.10;8.15;;;;;;;;;;5094694;27;20223;-66
2022/08/29 02:51:33;;;;;;;9.18;7.95;;;;;;;;;;5098806;28;20590;-65
2022/08/29 02:54:01;;;;;;;7.97;7.18;;;;;;;;;;5108079;27;20203;-68
2022/08/29 02:56:29;;;;;;;8.73;7.82;;;;;;;;;;5106571;27;20464;-68
2022/08/29 02:58:57;;;;;;;9.25;8.45;;;;;;;;;;5094203;28;20336;-67
2022/08/29 03:01:25;;;;;;;9.23;8.27;;;;;;;;;;5086923;27;20254;-68
2022/08/29 03:03:53;;;;;;;9.60;8.40;;;;;;;;;;5087304;27;20215;-68
2022/08/29 03:06:21;;;;;;;18.70;10.38;;;;;;;;;;5092109;27;22119;-66
2022/08/29 03:08:49;;;;;;;11.07;9.97;;;;;;;;;;5093268;27;22690;-66
2022/08/29 03:11:17;;;;;;;10.43;9.43;;;;;;;;;;5087338;27;20258;-66
2022/08/29 03:13:45;;;;;;;11.80;9.85;;;;;;;;;;5084152;27;20253;-66
2022/08/29 03:16:13;;;;;;;11.60;10.40;;;;;;;;;;5089422;27;20262;-65
2022/08/29 03:18:40;;;;;;;12.23;10.93;;;;;;;;;;5088943;27;20203;-68
2022/08/29 03:21:16;;;;;;;11.77;10.60;;;;;;;;;;5093541;27;20764;-68
2022/08/29 03:23:43;;;;;;;10.40;9.40;;;;;;;;;;5092856;27;20259;-65
2022/08/29 03:26:10;;;;;;;10.18;9.23;;;;;;;;;;5097636;27;20203;-67
2022/08/29 03:28:38;;;;;;;10.15;9.15;;;;;;;;;;5073860;27;20204;-64
2022/08/29 03:31:05;;;;;;;11.25;10.15;;;;;;;;;;5089302;27;20227;-65
2022/08/29 03:33:33;;;;;;;10.70;9.70;;;;;;;;;;5093991;27;20685;-65
2022/08/29 03:36:00;;;;;;;10.77;9.40;;;;;;;;;;5089054;27;20290;-68
2022/08/29 03:38:29;;;;;;;9.70;8.80;;;;;;;;;;5091761;27;20195;-69
2022/08/29 03:40:56;;;;;;;9.07;8.18;;;;;;;;;;5085151;27;20227;-67
2022/08/29 03:43:24;;;;;;;11.30;10.20;;;;;;;;;;5092227;27;20672;-67
2022/08/29 03:45:53;;;;;;;11.10;10.00;;;;;;;;;;5086342;27;20216;-68
2022/08/29 03:48:21;;;;;;;10.60;9.55;;;;;;;;;;5089555;27;20610;-68
2022/08/29 03:50:48;;;;;;;12.40;11.15;;;;;;;;;;5101625;27;20429;-64
2022/08/29 03:53:21;;;;;;;13.47;11.23;;;;;;;;;;5127079;27;20210;-68
2022/08/29 03:55:49;;;;;;;12.50;10.80;;;;;;;;;;5097834;27;20700;-68
2022/08/29 03:58:16;;;;;;;10.75;9.65;;;;;;;;;;5089887;27;20215;-66
2022/08/29 04:00:45;;;;;;;12.50;11.15;;;;;;;;;;5093687;27;20277;-68
2022/08/29 04:03:13;;;;;;;12.35;10.80;;;;;;;;;;5091876;27;20204;-68
2022/08/29 04:05:40;;;;;;;13.45;12.15;;;;;;;;;;5090399;27;21983;-65
2022/08/29 04:08:08;;;;;;;12.70;11.10;;;;;;;;;;5089753;27;20200;-66
2022/08/29 04:10:37;;;;;;;16.03;12.20;;;;;;;;;;5094360;27;20534;-67
2022/08/29 04:13:05;;;;;;;11.70;10.52;;;;;;;;;;5092897;27;20231;-67
2022/08/29 04:15:32;;;;;;;11.70;10.48;;;;;;;;;;5096281;27;20871;-66
2022/08/29 04:18:01;;;;;;;13.90;11.63;;;;;;;;;;5091956;27;20253;-67
2022/08/29 04:20:30;;;;;;;10.55;9.35;;;;;;;;;;5102003;27;20195;-67
2022/08/29 04:22:58;;;;;;;8.53;7.70;;;;;;;;;;5090736;27;20545;-64
2022/08/29 04:25:26;;;;;;;8.00;7.20;;;;;;;;;;5095724;27;20240;-65
2022/08/29 04:27:54;;;;;;;9.13;8.30;;;;;;;;;;5087833;27;20195;-67
2022/08/29 04:30:24;;;;;;;8.83;7.77;;;;;;;;;;5088212;27;21167;-68
2022/08/29 04:32:51;;;;;;;8.63;7.83;;;;;;;;;;5087515;27;20244;-67
2022/08/29 04:35:19;;;;;;;8.50;7.67;;;;;;;;;;5089377;27;20771;-66
2022/08/29 04:37:46;;;;;;;8.40;7.57;;;;;;;;;;5087354;27;20207;-65
2022/08/29 04:40:16;;;;;;;8.97;8.07;;;;;;;;;;5084229;27;20909;-68
2022/08/29 04:42:45;;;;;;;11.75;8.70;;;;;;;;;;5082834;27;20838;-66
2022/08/29 04:45:14;;;;;;;13.47;9.10;;;;;;;;;;5089522;27;21888;-64
2022/08/29 04:47:42;;;;;;;10.00;8.00;;;;;;;;;;5094386;27;20644;-66
2022/08/29 04:50:11;;;;;;;9.00;8.13;;;;;;;;;;5085472;27;20216;-67
2022/08/29 04:52:39;;;;;;;9.53;8.50;;;;;;;;;;5099712;27;20680;-67
2022/08/29 04:55:07;;;;;;;9.03;8.10;;;;;;;;;;5109068;27;20661;-68
2022/08/29 04:57:37;;;;;;;8.40;7.00;;;;;;;;;;5117182;27;20610;-66
2022/08/29 05:00:06;;;;;;;9.47;7.03;;;;;;;;;;5094697;27;20191;-68
2022/08/29 05:02:33;;;;;;;7.27;6.67;;;;;;;;;;5106849;27;20284;-65
2022/08/29 05:05:02;;;;;;;8.53;7.53;;;;;;;;;;5091447;27;20234;-65
2022/08/29 05:07:29;;;;;;;10.23;9.23;;;;;;;;;;5106558;27;20264;-67
2022/08/29 05:10:00;;;;;;;10.23;8.27;;;;;;;;;;5089642;27;20267;-67
2022/08/29 05:12:28;;;;;;;8.70;7.80;;;;;;;;;;5090595;27;20244;-68
2022/08/29 05:14:55;;;;;;;9.20;8.15;;;;;;;;;;5093587;27;20200;-65
2022/08/29 05:17:23;;;;;;;8.38;7.57;;;;;;;;;;5089630;27;20223;-67
2022/08/29 05:19:50;;;;;;;8.27;7.43;;;;;;;;;;5088332;27;20191;-67
2022/08/29 05:22:21;;;;;;;7.47;6.75;;;;;;;;;;5106066;27;20231;-67
2022/08/29 05:24:49;;;;;;;9.30;8.30;;;;;;;;;;5090062;27;20206;-66
2022/08/29 05:27:19;;;;;;;8.93;7.20;;;;;;;;;;5101930;27;20261;-68
2022/08/29 05:29:47;;;;;;;9.00;6.60;;;;;;;;;;5107845;27;20200;-67
2022/08/29 05:32:16;;;;;;;10.37;6.57;;;;;;;;;;5104416;27;20228;-68
2022/08/29 05:34:44;;;;;;;9.32;6.47;;;;;;;;;;5107334;27;20656;-67
2022/08/29 05:37:13;;;;;;;16.00;7.00;;;;;;;;;;5097012;27;20271;-67
2022/08/29 05:39:41;;;;;;;12.88;7.95;;;;;;;;;;5106761;27;20253;-67
2022/08/29 05:42:10;;;;;;;22.00;11.13;;;;;;;;;;5086636;27;20280;-68
2022/08/29 05:44:37;;;;;;;19.25;7.85;;;;;;;;;;5088378;27;20208;-68
2022/08/29 05:47:06;;;;;;;15.43;6.93;;;;;;;;;;5107919;27;20207;-68
2022/08/29 05:49:38;;;;;;;23.45;7.85;;;;;;;;;;5108551;27;20311;-67
2022/08/29 05:52:06;;;;;;;23.45;7.88;;;;;;;;;;5091921;27;20701;-68
2022/08/29 05:54:34;;;;;;;34.95;9.07;;;;;;;;;;5089603;27;20260;-67
2022/08/29 05:57:02;;;;;;;28.88;8.80;;;;;;;;;;5106927;27;20210;-67
2022/08/29 05:59:30;;;;;;;26.80;8.18;;;;;;;;;;5111579;27;20208;-65
2022/08/29 06:01:57;;;;;;;33.17;9.20;;;;;;;;;;5106287;27;20280;-66
2022/08/29 06:04:25;;;;;;;31.70;9.00;;;;;;;;;;5104991;27;20631;-68
2022/08/29 06:06:52;;;;;;;34.50;8.38;;;;;;;;;;5088390;27;20693;-67
2022/08/29 06:09:19;;;;;;;28.55;8.52;;;;;;;;;;5088172;27;20736;-67
2022/08/29 06:11:48;;;;;;;22.55;8.38;;;;;;;;;;5095860;27;20261;-67
2022/08/29 06:14:16;;;;;;;20.45;8.85;;;;;;;;;;5092739;27;20693;-68
2022/08/29 06:16:43;;;;;;;16.70;10.00;;;;;;;;;;5088361;27;20204;-66
2022/08/29 06:19:10;;;;;;;17.27;10.57;;;;;;;;;;5085541;27;20233;-66
2022/08/29 06:21:38;;;;;;;19.85;10.88;;;;;;;;;;5084919;27;20227;-65
2022/08/29 06:24:06;;;;;;;15.23;9.68;;;;;;;;;;5086840;27;20239;-66
2022/08/29 06:26:33;;;;;;;14.30;10.02;;;;;;;;;;5080774;27;20195;-67
2022/08/29 06:29:03;;;;;;;13.93;10.88;;;;;;;;;;5087711;27;20547;-66
2022/08/29 06:31:30;;;;;;;17.42;10.90;;;;;;;;;;5080399;27;20534;-67
2022/08/29 06:33:59;;;;;;;12.82;11.40;;;;;;;;;;5086642;27;20207;-65
2022/08/29 06:36:27;;;;;;;12.05;10.80;;;;;;;;;;5104226;27;20275;-66
2022/08/29 06:38:56;;;;;;;14.73;11.63;;;;;;;;;;5087013;27;20303;-68
2022/08/29 06:41:24;;;;;;;13.20;11.65;;;;;;;;;;5084357;27;21059;-66
2022/08/29 06:43:52;;;;;;;14.05;11.82;;;;;;;;;;5085831;27;20212;-67
2022/08/29 06:46:23;;;;;;;14.65;12.88;;;;;;;;;;5089327;27;20720;-66
2022/08/29 06:48:51;;;;;;;15.48;13.75;;;;;;;;;;5088826;27;20215;-66
2022/08/29 06:51:18;;;;;;;15.15;13.55;;;;;;;;;;5085988;27;20723;-67
2022/08/29 06:53:46;;;;;;;14.75;13.15;;;;;;;;;;5097760;28;20441;-68
2022/08/29 06:56:13;;;;;;;15.43;13.35;;;;;;;;;;5104835;28;20673;-68
2022/08/29 06:58:41;;;;;;;14.73;13.20;;;;;;;;;;5095537;27;20193;-67
2022/08/29 07:01:10;;;;;;;17.75;14.13;;;;;;;;;;5085033;27;20699;-68
2022/08/29 07:03:38;;;;;;;18.27;13.02;;;;;;;;;;5087382;27;20211;-68
2022/08/29 07:06:06;;;;;;;18.85;14.20;;;;;;;;;;5093973;27;20240;-68
2022/08/29 07:08:34;;;;;;;20.13;13.65;;;;;;;;;;5088454;27;20266;-67
2022/08/29 07:11:01;;;;;;;16.15;13.82;;;;;;;;;;5089408;27;20220;-67
2022/08/29 07:13:33;;;;;;;16.38;13.35;;;;;;;;;;5089738;27;20342;-68
2022/08/29 07:16:01;;;;;;;16.83;13.00;;;;;;;;;;5091839;27;20206;-66
2022/08/29 07:18:29;;;;;;;17.80;13.77;;;;;;;;;;5096697;27;20233;-67
2022/08/29 07:20:56;;;;;;;14.75;13.23;;;;;;;;;;5077058;27;20227;-65
2022/08/29 07:23:24;;;;;;;13.38;11.93;;;;;;;;;;5075336;27;20213;-65
2022/08/29 07:25:51;;;;;;;12.38;11.00;;;;;;;;;;5078320;27;20255;-67
2022/08/29 07:28:18;;;;;;;15.20;11.00;;;;;;;;;;5091702;27;20256;-66
2022/08/29 07:30:46;;;;;;;11.65;10.45;;;;;;;;;;5080292;27;20223;-65
2022/08/29 07:33:13;;;;;;;13.05;10.15;;;;;;;;;;5080237;27;21197;-66
2022/08/29 07:35:41;;;;;;;10.10;9.10;;;;;;;;;;5108487;27;20205;-68
2022/08/29 07:38:08;;;;;;;11.05;9.77;;;;;;;;;;5090883;27;20578;-65
2022/08/29 07:40:36;;;;;;;9.55;8.55;;;;;;;;;;5090913;27;20209;-65
2022/08/29 07:43:04;;;;;;;9.93;8.93;;;;;;;;;;5091775;27;20211;-66
2022/08/29 07:45:31;;;;;;;11.15;9.32;;;;;;;;;;5082385;27;20200;-65
2022/08/29 07:47:59;;;;;;;12.00;9.43;;;;;;;;;;5073141;27;20227;-67
2022/08/29 07:50:26;;;;;;;9.32;8.43;;;;;;;;;;5077459;27;20216;-64
2022/08/29 07:52:55;;;;;;;10.30;8.27;;;;;;;;;;5098560;27;20452;-66
2022/08/29 07:55:22;;;;;;;9.63;8.52;;;;;;;;;;5073223;27;20196;-66
2022/08/29 07:57:52;;;;;;;9.48;8.40;;;;;;;;;;5077770;27;20471;-66
2022/08/29 08:00:20;;;;;;;12.18;8.73;;;;;;;;;;5076342;27;20295;-67
2022/08/29 08:02:47;;;;;;;10.18;9.13;;;;;;;;;;5079462;27;20325;-66
2022/08/29 08:05:15;;;;;;;10.68;8.70;;;;;;;;;;5074215;27;20372;-66
2022/08/29 08:07:43;;;;;;;10.05;9.00;;;;;;;;;;5092457;27;20266;-65
2022/08/29 08:10:15;;;;;;;9.35;8.30;;;;;;;;;;5074092;27;20586;-67
2022/08/29 08:12:43;;;;;;;10.27;9.27;;;;;;;;;;5076123;27;20231;-68
2022/08/29 08:15:11;;;;;;;9.48;8.20;;;;;;;;;;5080471;27;20204;-65
2022/08/29 08:17:38;;;;;;;10.73;7.47;;;;;;;;;;5080253;27;20626;-66
2022/08/29 08:20:10;;;;;;;9.05;7.45;;;;;;;;;;5087878;27;20234;-64
2022/08/29 08:22:38;;;;;;;8.00;7.20;;;;;;;;;;5088964;27;20323;-65
2022/08/29 08:25:06;;;;;;;7.65;6.57;;;;;;;;;;5093805;27;20304;-67
2022/08/29 08:27:33;;;;;;;8.27;7.35;;;;;;;;;;5111381;27;20256;-67
2022/08/29 08:30:07;;;;;;;7.40;6.45;;;;;;;;;;5124971;27;20597;-66
2022/08/29 08:32:34;;;;;;;8.90;6.72;;;;;;;;;;5108728;27;20224;-67
2022/08/29 08:35:02;;;;;;;8.40;6.10;;;;;;;;;;5105424;27;20665;-67
2022/08/29 08:37:29;;;;;;;8.73;7.18;;;;;;;;;;5107708;27;20697;-68
2022/08/29 08:39:57;;;;;;;6.55;5.95;;;;;;;;;;5107320;27;20225;-68
2022/08/29 08:42:43;;;;;;;7.38;6.63;;;;;;;;;;5110227;27;20762;-68
2022/08/29 08:45:25;;;;;;;8.20;6.95;;;;;;;;;;5103824;27;20223;-67
2022/08/29 08:47:58;;;;;;;8.52;7.60;;;;;;;;;;5107475;27;20204;-68
2022/08/29 08:50:42;;;;;;;7.82;6.95;;;;;;;;;;5112053;27;20469;-68
2022/08/29 08:53:12;;;;;;;8.77;6.75;;;;;;;;;;5110846;27;20257;-68
2022/08/29 08:55:44;;;;;;;7.70;6.93;;;;;;;;;;5103340;27;20256;-67
2022/08/29 08:58:15;;;;;;;7.60;6.38;;;;;;;;;;5101520;27;20261;-67
2022/08/29 09:00:52;;;;;;;7.68;6.05;;;;;;;;;;5094105;27;20213;-65
2022/08/29 09:03:38;;;;;;;8.32;6.80;;;;;;;;;;5088618;27;20195;-67
2022/08/29 09:06:31;;;;;;;10.73;6.90;;;;;;;;;;5087663;27;20208;-67
2022/08/29 09:09:19;;;;;;;7.25;6.22;;;;;;;;;;5088189;27;21198;-66
2022/08/29 09:12:13;;;;;;;7.70;6.07;;;;;;;;;;5044687;27;20700;-66
2022/08/29 09:14:59;;;;;;;7.10;6.00;;;;;;;;;;5083782;27;20417;-68
2022/08/29 09:17:40;;;;;;;6.63;5.75;;;;;;;;;;5078307;27;20809;-65
2022/08/29 09:20:12;;;;;;;7.32;5.57;;;;;;;;;;5090556;27;20200;-66
2022/08/29 09:22:41;;;;;;;6.55;5.93;;;;;;;;;;5081997;27;20235;-66
2022/08/29 09:25:10;;;;;;;6.53;5.57;;;;;;;;;;5090614;27;20212;-67
2022/08/29 09:27:38;;;;;;;7.97;5.40;;;;;;;;;;5088569;27;20236;-67
2022/08/29 09:30:10;;;;;;;6.68;4.80;;;;;;;;;;5089716;27;20219;-66
2022/08/29 09:33:07;;;;;;;7.15;4.65;;;;;;;;;;5084878;27;20232;-68
2022/08/29 09:35:41;;;;;;;6.82;5.18;;;;;;;;;;5061533;27;20646;-64
2022/08/29 09:38:17;;;;;;;7.00;5.40;;;;;;;;;;5089580;27;20216;-65
2022/08/29 09:40:54;;;;;;;6.05;5.15;;;;;;;;;;5086805;27;20218;-66
2022/08/29 09:43:40;;;;;;;6.00;5.07;;;;;;;;;;5086876;27;21250;-65
2022/08/29 09:46:10;;;;;;;6.65;5.63;;;;;;;;;;5079878;27;20339;-63
2022/08/29 09:48:47;;;;;;;5.63;5.13;;;;;;;;;;5104337;27;20227;-66
2022/08/29 09:51:26;;;;;;;6.65;5.63;;;;;;;;;;5106314;27;20223;-67
2022/08/29 09:54:09;;;;;;;5.55;5.03;;;;;;;;;;5134092;27;20234;-64
2022/08/29 09:56:39;;;;;;;7.40;5.05;;;;;;;;;;5103542;27;20206;-65
2022/08/29 09:59:13;;;;;;;5.43;4.93;;;;;;;;;;5089546;27;20552;-65
2022/08/29 10:01:40;;;;;;;6.45;5.22;;;;;;;;;;5097898;27;20253;-63
2022/08/29 10:04:08;;;;;;;7.15;4.88;;;;;;;;;;5095950;27;20823;-64
2022/08/29 10:06:39;;;;;;;5.68;5.07;;;;;;;;;;5098622;27;20204;-67
2022/08/29 10:09:23;;;;;;;5.85;4.70;;;;;;;;;;5081028;27;20207;-67
2022/08/29 10:11:59;;;;;;;5.80;5.20;;;;;;;;;;5082424;27;20228;-67
2022/08/29 10:14:33;;;;;;;5.63;5.00;;;;;;;;;;5088591;27;20202;-67
2022/08/29 10:19:50;;;;;;;5.78;4.85;;;;;;;;;;5115336;27;20212;-67
2022/08/29 10:22:37;;;;;;;6.38;4.60;;;;;;;;;;5091122;27;20227;-68
2022/08/29 10:25:11;;;;;;;4.97;4.40;;;;;;;;;;5087986;27;20211;-66
2022/08/29 10:27:59;;;;;;;4.60;4.15;;;;;;;;;;5078456;27;20216;-67
2022/08/29 10:30:29;;;;;;;5.45;4.53;;;;;;;;;;5085886;27;20252;-67
2022/08/29 10:32:59;;;;;;;5.45;4.75;;;;;;;;;;5073808;27;20235;-68
2022/08/29 10:35:29;;;;;;;5.95;4.93;;;;;;;;;;5096457;27;21881;-68
2022/08/29 10:37:59;;;;;;;5.97;4.25;;;;;;;;;;5082308;27;20292;-66
2022/08/29 10:40:47;;;;;;;5.80;4.70;;;;;;;;;;5083832;27;20195;-67
2022/08/29 10:43:15;;;;;;;4.95;4.30;;;;;;;;;;5075071;27;20338;-67
2022/08/29 10:45:46;;;;;;;5.13;4.22;;;;;;;;;;5085089;27;20729;-67
2022/08/29 10:48:26;;;;;;;6.30;4.72;;;;;;;;;;5088861;27;20354;-68
2022/08/29 10:51:08;;;;;;;5.40;4.75;;;;;;;;;;5091022;27;20803;-68
2022/08/29 10:53:41;;;;;;;5.65;4.38;;;;;;;;;;5101872;27;20275;-68
2022/08/29 10:56:26;;;;;;;5.60;4.40;;;;;;;;;;5094787;28;20666;-67
2022/08/29 10:59:00;;;;;;;6.90;4.40;;;;;;;;;;5096673;27;20207;-66
2022/08/29 11:01:36;;;;;;;5.22;4.30;;;;;;;;;;5072589;27;20227;-66
2022/08/29 11:04:15;;;;;;;5.63;4.70;;;;;;;;;;5076374;27;20299;-65
2022/08/29 11:06:54;;;;;;;5.15;4.38;;;;;;;;;;5107232;27;20198;-67
2022/08/29 11:09:28;;;;;;;5.53;4.43;;;;;;;;;;5077533;27;20962;-67
2022/08/29 11:11:56;;;;;;;5.10;4.60;;;;;;;;;;5083189;27;20230;-67
2022/08/29 11:14:26;;;;;;;4.75;4.20;;;;;;;;;;5088266;27;20227;-65
2022/08/29 11:16:54;;;;;;;5.38;4.45;;;;;;;;;;5087966;27;20268;-67
2022/08/29 11:19:28;;;;;;;4.25;3.78;;;;;;;;;;5091233;27;20215;-66
2022/08/29 11:22:15;;;;;;;4.43;4.00;;;;;;;;;;5088412;27;20281;-67
2022/08/29 11:24:44;;;;;;;4.90;4.13;;;;;;;;;;5089336;27;20212;-68
2022/08/29 11:27:25;;;;;;;4.53;4.05;;;;;;;;;;5084533;27;20430;-66
2022/08/29 11:30:11;;;;;;;5.10;4.10;;;;;;;;;;5090652;27;20669;-67
2022/08/29 11:32:41;;;;;;;6.88;4.45;;;;;;;;;;5082663;27;20284;-67
2022/08/29 11:35:13;;;;;;;5.07;3.92;;;;;;;;;;5084388;27;20256;-65
2022/08/29 11:37:59;;;;;;;5.05;4.30;;;;;;;;;;5089819;27;20265;-67
2022/08/29 11:40:27;;;;;;;4.32;3.92;;;;;;;;;;5088216;27;20666;-67
2022/08/29 11:43:19;;;;;;;5.55;4.15;;;;;;;;;;5088875;27;20704;-65
2022/08/29 11:45:55;;;;;;;4.78;3.70;;;;;;;;;;5090570;28;20203;-67
2022/08/29 11:48:39;;;;;;;4.10;3.80;;;;;;;;;;5088223;27;20283;-67
2022/08/29 11:51:28;;;;;;;4.28;3.88;;;;;;;;;;5089640;27;20231;-68
2022/08/29 11:53:56;;;;;;;4.57;3.65;;;;;;;;;;5103277;27;20771;-68
2022/08/29 11:56:28;;;;;;;4.75;3.60;;;;;;;;;;5091959;27;22512;-66
2022/08/29 11:58:57;;;;;;;5.05;3.92;;;;;;;;;;5087027;27;20205;-68
2022/08/29 12:01:25;;;;;;;5.95;3.65;;;;;;;;;;5109614;27;20224;-67
2022/08/29 12:03:53;;;;;;;4.50;4.10;;;;;;;;;;5092436;27;20313;-68
2022/08/29 12:06:26;;;;;;;4.60;4.20;;;;;;;;;;5094448;27;20619;-67
2022/08/29 12:09:00;;;;;;;5.35;4.07;;;;;;;;;;5094838;27;20664;-68
2022/08/29 12:11:50;;;;;;;4.20;3.90;;;;;;;;;;5093401;27;20219;-67
2022/08/29 12:14:30;;;;;;;6.05;4.05;;;;;;;;;;5092718;27;20708;-68
2022/08/29 12:17:09;;;;;;;4.10;3.78;;;;;;;;;;5091960;27;20203;-68
2022/08/29 12:19:52;;;;;;;5.05;3.83;;;;;;;;;;5088206;27;20212;-67
2022/08/29 12:22:38;;;;;;;3.55;3.22;;;;;;;;;;5099188;27;20227;-66
2022/08/29 12:25:24;;;;;;;4.22;3.78;;;;;;;;;;5100289;27;20238;-68
2022/08/29 12:27:59;;;;;;;4.90;3.83;;;;;;;;;;5092600;27;20328;-68
2022/08/29 12:30:28;;;;;;;5.25;3.90;;;;;;;;;;5090190;27;20837;-68
2022/08/29 12:32:55;;;;;;;4.35;3.95;;;;;;;;;;5092246;27;20223;-67
2022/08/29 12:35:24;;;;;;;5.07;4.05;;;;;;;;;;5081290;27;20672;-68
2022/08/29 12:38:09;;;;;;;4.40;4.00;;;;;;;;;;5080389;27;20218;-67
2022/08/29 12:40:36;;;;;;;5.00;3.80;;;;;;;;;;5078533;27;20527;-66
2022/08/29 12:43:04;;;;;;;4.72;4.03;;;;;;;;;;5092574;27;20215;-66
2022/08/29 12:45:32;;;;;;;4.38;3.90;;;;;;;;;;5089717;27;20207;-66
2022/08/29 12:48:01;;;;;;;4.10;3.70;;;;;;;;;;5111597;27;20235;-67
2022/08/29 12:50:31;;;;;;;4.03;3.63;;;;;;;;;;5091687;27;20215;-66
2022/08/29 12:53:00;;;;;;;5.43;4.10;;;;;;;;;;5121755;27;20224;-67
2022/08/29 12:55:34;;;;;;;4.93;4.35;;;;;;;;;;5114652;27;20257;-66
2022/08/29 12:58:01;;;;;;;4.28;3.88;;;;;;;;;;5104981;27;20204;-66
2022/08/29 13:00:30;;;;;;;6.13;4.43;;;;;;;;;;5090444;27;20654;-67
2022/08/29 13:02:59;;;;;;;4.80;4.18;;;;;;;;;;5091343;27;20303;-67
2022/08/29 13:05:28;;;;;;;4.75;4.32;;;;;;;;;;5093412;27;20204;-67
2022/08/29 13:07:57;;;;;;;6.03;4.32;;;;;;;;;;5090741;27;20200;-65
2022/08/29 13:10:25;;;;;;;4.80;4.30;;;;;;;;;;5096581;27;20211;-67
2022/08/29 13:13:02;;;;;;;8.43;4.28;;;;;;;;;;5092073;27;20266;-67
2022/08/29 13:15:29;;;;;;;6.70;4.53;;;;;;;;;;5093727;27;20214;-67
2022/08/29 13:17:59;;;;;;;4.90;4.50;;;;;;;;;;5094348;27;20212;-65
2022/08/29 13:20:39;;;;;;;5.68;4.70;;;;;;;;;;5087601;27;20419;-65
2022/08/29 13:23:14;;;;;;;5.82;4.20;;;;;;;;;;5093049;27;20555;-66
2022/08/29 13:25:52;;;;;;;4.93;4.47;;;;;;;;;;5111714;27;20284;-69
2022/08/29 13:28:20;;;;;;;5.05;4.53;;;;;;;;;;5092191;27;20229;-68
2022/08/29 13:31:07;;;;;;;4.97;4.20;;;;;;;;;;5083127;27;20280;-68
2022/08/29 13:33:35;;;;;;;4.90;4.50;;;;;;;;;;5091380;27;20223;-68
2022/08/29 13:36:21;;;;;;;4.70;4.32;;;;;;;;;;5090403;27;20200;-66
2022/08/29 13:39:09;;;;;;;6.32;4.40;;;;;;;;;;5108301;27;20270;-66
2022/08/29 13:41:36;;;;;;;4.38;3.97;;;;;;;;;;5088740;27;20219;-69
2022/08/29 13:44:04;;;;;;;4.25;3.95;;;;;;;;;;5080879;27;20210;-66
2022/08/29 13:46:31;;;;;;;4.55;4.00;;;;;;;;;;5093779;27;20216;-68
2022/08/29 13:49:00;;;;;;;4.47;4.07;;;;;;;;;;5109033;27;20203;-66
2022/08/29 13:51:28;;;;;;;5.65;4.60;;;;;;;;;;5094248;27;20228;-66
2022/08/29 13:53:55;;;;;;;5.88;3.95;;;;;;;;;;5104735;27;20223;-69
2022/08/29 13:56:27;;;;;;;4.65;4.25;;;;;;;;;;5108280;27;20210;-66
2022/08/29 13:58:58;;;;;;;4.55;4.00;;;;;;;;;;5101607;27;21571;-66
2022/08/29 14:01:26;;;;;;;4.63;4.05;;;;;;;;;;5091646;27;20591;-66
2022/08/29 14:04:13;;;;;;;4.45;4.15;;;;;;;;;;5091911;27;20327;-67
2022/08/29 14:07:01;;;;;;;5.05;4.35;;;;;;;;;;5085468;27;20203;-66
2022/08/29 14:09:34;;;;;;;5.03;4.38;;;;;;;;;;5090191;27;21582;-66
2022/08/29 14:12:02;;;;;;;5.00;4.47;;;;;;;;;;5093341;27;20224;-67
2022/08/29 14:14:29;;;;;;;4.90;4.40;;;;;;;;;;5093576;27;20733;-67
2022/08/29 14:16:57;;;;;;;4.57;4.15;;;;;;;;;;5089667;27;20203;-67
2022/08/29 14:19:26;;;;;;;5.05;4.47;;;;;;;;;;5086487;27;20253;-66
2022/08/29 14:21:53;;;;;;;4.40;4.10;;;;;;;;;;5090038;27;20216;-67
2022/08/29 14:24:21;;;;;;;4.93;4.40;;;;;;;;;;5087337;27;20212;-70
2022/08/29 14:26:55;;;;;;;5.15;4.22;;;;;;;;;;5099964;27;20761;-67
2022/08/29 14:29:28;;;;;;;7.15;4.30;;;;;;;;;;5113985;27;20207;-67
2022/08/29 14:31:57;;;;;;;5.72;4.30;;;;;;;;;;5124186;27;20233;-66
2022/08/29 14:34:25;;;;;;;6.43;4.38;;;;;;;;;;5106179;27;20219;-66
2022/08/29 14:36:57;;;;;;;3.92;3.63;;;;;;;;;;5079973;27;20339;-67
2022/08/29 14:39:24;;;;;;;4.57;4.13;;;;;;;;;;5082867;27;20249;-69
2022/08/29 14:41:53;;;;;;;4.88;3.83;;;;;;;;;;5075586;27;20345;-67
2022/08/29 14:44:21;;;;;;;4.30;4.00;;;;;;;;;;5068901;27;20919;-69
2022/08/29 14:46:48;;;;;;;4.03;3.67;;;;;;;;;;5069222;27;20239;-69
2022/08/29 14:49:16;;;;;;;4.03;3.63;;;;;;;;;;5069994;27;20262;-69
2022/08/29 14:51:43;;;;;;;4.20;3.90;;;;;;;;;;5079112;27;20223;-67
2022/08/29 14:54:11;;;;;;;4.30;3.90;;;;;;;;;;5090330;27;20293;-68
2022/08/29 14:56:39;;;;;;;3.60;3.30;;;;;;;;;;5101449;27;20215;-70
2022/08/29 14:59:17;;;;;;;4.82;4.00;;;;;;;;;;5092709;27;20211;-70
2022/08/29 15:01:44;;;;;;;4.18;3.75;;;;;;;;;;5095776;27;20672;-69
2022/08/29 15:04:19;;;;;;;4.30;3.55;;;;;;;;;;5080254;27;20231;-67